Time;durP1;ratioP1;P1;durP2;ratioP2;P2;SDS_P1;SDS_P2;PMS_P1;PMS_P2;Temp;Humidity;BMP_temperature;BMP_pressure;BME280_temperature;BME280_humidity;BME280_pressure;Samples;Min_cycle;Max_cycle;Signal;HPM_P1;HPM_P2
2022/11/23 00:01:16;;;;;;;20.10;15.18;;;;;;;3.73;81.45;97915.13;5007251;28;20065;-68
2022/11/23 00:03:46;;;;;;;18.38;13.77;;;;;;;3.71;81.37;97915.19;5006130;28;20225;-69
2022/11/23 00:06:13;;;;;;;20.85;15.27;;;;;;;3.70;81.37;97917.88;5006743;28;20039;-69
2022/11/23 00:08:40;;;;;;;19.50;14.65;;;;;;;3.44;81.42;97861.56;5007090;28;20054;-69
2022/11/23 00:11:07;;;;;;;18.45;14.57;;;;;;;3.71;81.52;97915.19;5007068;28;20064;-68
2022/11/23 00:13:34;;;;;;;19.52;14.75;;;;;;;3.72;81.25;97913.41;5006983;28;20046;-68
2022/11/23 00:16:03;;;;;;;19.20;14.75;;;;;;;1.81;81.21;97603.63;5006929;28;20046;-68
2022/11/23 00:18:30;;;;;;;18.00;13.82;;;;;;;3.71;81.31;97915.19;5006901;28;20054;-68
2022/11/23 00:20:58;;;;;;;19.15;14.70;;;;;;;3.73;81.30;97915.13;5006877;28;20054;-68
2022/11/23 00:23:24;;;;;;;17.23;13.93;;;;;;;3.73;81.30;97912.50;5006573;28;20073;-68
2022/11/23 00:25:51;;;;;;;17.67;14.52;;;;;;;3.47;81.34;97870.13;5006584;28;20103;-69
2022/11/23 00:28:18;;;;;;;19.20;14.48;;;;;;;3.75;81.23;97916.72;5005513;28;20058;-69
2022/11/23 00:30:49;;;;;;;21.10;15.07;;;;;;;3.74;81.33;97915.03;5006668;28;20319;-69
2022/11/23 00:33:15;;;;;;;20.25;15.48;;;;;;;3.75;81.22;97915.88;5006696;28;20320;-68
2022/11/23 00:35:42;;;;;;;21.20;15.48;;;;;;;3.75;81.46;97921.97;5006394;28;20040;-68
2022/11/23 00:38:10;;;;;;;18.08;14.15;;;;;;;3.29;81.36;97831.75;5006415;28;20046;-68
2022/11/23 00:40:37;;;;;;;18.05;14.23;;;;;;;3.74;81.34;97915.03;5006582;28;20057;-68
2022/11/23 00:43:04;;;;;;;19.30;13.57;;;;;;;2.75;81.25;97752.44;5006178;28;20046;-68
2022/11/23 00:45:31;;;;;;;19.02;14.50;;;;;;;3.37;81.42;97847.06;5006457;28;20054;-68
2022/11/23 00:47:57;;;;;;;20.25;14.25;;;;;;;3.70;81.43;97897.78;5006054;28;20117;-69
2022/11/23 00:50:24;;;;;;;21.10;15.70;;;;;;;3.41;81.45;97852.09;5006692;28;20229;-70
2022/11/23 00:52:51;;;;;;;17.88;13.90;;;;;;;3.72;81.53;97910.78;5006194;28;20042;-68
2022/11/23 00:55:19;;;;;;;18.50;13.70;;;;;;;3.72;81.42;97897.69;5005295;28;20225;-68
2022/11/23 00:57:46;;;;;;;16.73;13.27;;;;;;;3.73;81.38;97896.78;5005270;28;20230;-68
2022/11/23 01:00:13;;;;;;;18.52;14.18;;;;;;;3.73;81.45;97902.00;5006382;28;20080;-68
2022/11/23 01:02:40;;;;;;;18.00;12.38;;;;;;;3.72;81.48;97901.16;5006537;28;20054;-69
2022/11/23 01:05:07;;;;;;;17.98;12.70;;;;;;;3.72;81.49;97898.53;5006275;28;20290;-69
2022/11/23 01:07:34;;;;;;;19.58;14.00;;;;;;;3.72;81.65;97897.69;5006135;28;20052;-70
2022/11/23 01:10:00;;;;;;;17.45;13.77;;;;;;;3.72;81.83;97895.06;5005095;28;20046;-69
2022/11/23 01:12:29;;;;;;;20.45;13.50;;;;;;;3.72;81.76;97887.22;5006196;28;20039;-69
2022/11/23 01:14:56;;;;;;;17.52;13.40;;;;;;;3.71;81.64;97882.91;5005872;28;20088;-69
2022/11/23 01:17:23;;;;;;;17.75;12.98;;;;;;;3.70;81.61;97886.44;5006437;28;20047;-69
2022/11/23 01:19:50;;;;;;;17.92;13.93;;;;;;;3.71;81.93;97882.91;5006373;28;20042;-69
2022/11/23 01:22:19;;;;;;;17.08;13.20;;;;;;;3.71;81.70;97881.13;5006374;28;20050;-69
2022/11/23 01:24:45;;;;;;;18.02;13.10;;;;;;;3.72;81.68;97880.19;5006337;28;20109;-69
2022/11/23 01:27:12;;;;;;;18.42;13.75;;;;;;;3.71;81.72;97873.25;5006265;28;20046;-69
2022/11/23 01:29:40;;;;;;;17.38;13.00;;;;;;;3.72;81.94;97876.72;5006050;28;20101;-69
2022/11/23 01:32:07;;;;;;;18.30;14.02;;;;;;;3.72;81.84;97874.97;5006344;28;20050;-69
2022/11/23 01:34:34;;;;;;;19.75;14.13;;;;;;;3.34;81.73;97808.81;5005805;28;20088;-69
2022/11/23 01:37:00;;;;;;;17.15;13.27;;;;;;;3.74;81.83;97867.03;5005755;28;20046;-69
2022/11/23 01:39:27;;;;;;;20.92;14.60;;;;;;;3.72;81.84;97861.84;5005729;28;20046;-69
2022/11/23 01:41:53;;;;;;;16.77;13.07;;;;;;;3.74;81.96;97865.25;5005381;28;20046;-69
2022/11/23 01:44:27;;;;;;;20.02;14.68;;;;;;;3.73;81.96;97865.31;5004848;28;20053;-69
2022/11/23 01:46:57;;;;;;;16.92;12.52;;;;;;;3.72;81.99;97867.09;5005550;28;20054;-69
2022/11/23 01:49:25;;;;;;;19.13;14.35;;;;;;;3.72;81.91;97858.38;5005921;28;20297;-69
2022/11/23 01:51:55;;;;;;;18.55;14.55;;;;;;;3.74;81.87;97867.03;5005886;28;20105;-69
2022/11/23 01:54:26;;;;;;;20.13;15.00;;;;;;;3.73;81.93;97867.94;5005590;28;20053;-69
2022/11/23 01:57:01;;;;;;;18.23;13.27;;;;;;;3.71;82.06;97860.16;5008874;28;20042;-69
2022/11/23 01:59:30;;;;;;;20.20;15.20;;;;;;;3.44;82.03;97812.66;5009897;28;20050;-69
2022/11/23 02:01:59;;;;;;;17.83;14.10;;;;;;;3.69;82.00;97863.78;5009276;28;20046;-69
2022/11/23 02:04:31;;;;;;;17.05;12.52;;;;;;;3.69;82.00;97863.78;5009758;28;20053;-69
2022/11/23 02:07:00;;;;;;;16.80;12.90;;;;;;;2.45;81.91;97651.94;5009629;28;20046;-69
2022/11/23 02:09:26;;;;;;;16.63;12.77;;;;;;;3.73;82.01;97862.72;5009374;28;20104;-69
2022/11/23 02:11:53;;;;;;;17.40;12.95;;;;;;;3.73;81.80;97860.94;5009051;28;20046;-69
2022/11/23 02:14:20;;;;;;;16.80;13.00;;;;;;;3.73;81.86;97857.47;5008988;28;20105;-69
2022/11/23 02:16:46;;;;;;;18.25;13.05;;;;;;;3.73;81.96;97862.72;5009002;28;20042;-70
2022/11/23 02:19:25;;;;;;;18.35;13.60;;;;;;;3.73;82.05;97862.72;5009216;28;20294;-69
2022/11/23 02:21:53;;;;;;;19.08;13.55;;;;;;;3.74;81.92;97872.25;5009155;28;20097;-69
2022/11/23 02:24:26;;;;;;;18.95;15.07;;;;;;;3.53;81.99;97829.66;5009371;28;20042;-69
2022/11/23 02:26:55;;;;;;;15.85;12.93;;;;;;;3.73;81.98;97868.78;5009029;28;20297;-69
2022/11/23 02:29:24;;;;;;;17.80;13.50;;;;;;;3.75;82.10;97868.72;5009006;28;20049;-69
2022/11/23 02:31:51;;;;;;;20.55;15.10;;;;;;;3.76;81.91;97876.50;5024490;28;20039;-69
2022/11/23 02:34:18;;;;;;;17.38;12.38;;;;;;;3.76;81.99;97870.41;5007776;28;20203;-68
2022/11/23 02:36:48;;;;;;;18.85;13.63;;;;;;;3.76;82.11;97875.66;5008891;28;20096;-69
2022/11/23 02:39:18;;;;;;;18.48;13.88;;;;;;;3.75;82.08;97866.94;5008829;28;20065;-69
2022/11/23 02:41:48;;;;;;;19.58;14.57;;;;;;;3.75;81.92;97871.34;5008500;28;20054;-69
2022/11/23 02:44:37;;;;;;;17.00;13.57;;;;;;;3.73;82.12;97868.78;5008513;28;20183;-69
2022/11/23 02:47:05;;;;;;;16.73;12.57;;;;;;;3.73;82.16;97875.81;5008169;28;20070;-70
2022/11/23 02:49:32;;;;;;;19.02;14.50;;;;;;;3.71;82.24;97873.25;5007566;28;20057;-69
2022/11/23 02:51:58;;;;;;;21.05;14.63;;;;;;;3.71;82.16;97872.41;5007506;28;20042;-69
2022/11/23 02:54:25;;;;;;;19.88;14.52;;;;;;;3.73;82.06;97873.19;5007436;28;20302;-69
2022/11/23 02:56:52;;;;;;;18.80;13.23;;;;;;;3.04;82.15;97763.22;5007429;28;20035;-69
2022/11/23 02:59:20;;;;;;;19.25;14.48;;;;;;;3.74;82.07;97877.50;5008482;28;20283;-70
2022/11/23 03:01:47;;;;;;;20.85;14.73;;;;;;;3.73;82.18;97879.28;5007333;28;20054;-69
2022/11/23 03:04:14;;;;;;;19.40;14.55;;;;;;;3.73;82.12;97881.91;5007302;28;20069;-69
2022/11/23 03:06:41;;;;;;;17.17;13.18;;;;;;;3.72;82.14;97882.81;5023019;28;20252;-70
2022/11/23 03:09:09;;;;;;;20.92;13.70;;;;;;;3.74;82.18;97886.22;5008049;28;20110;-70
2022/11/23 03:11:36;;;;;;;18.77;14.32;;;;;;;3.73;82.13;97892.38;5008323;28;20381;-69
2022/11/23 03:14:03;;;;;;;17.45;13.93;;;;;;;3.74;82.10;97880.13;5007953;28;20064;-69
2022/11/23 03:16:32;;;;;;;20.63;15.25;;;;;;;3.74;82.18;97886.22;5007905;28;20062;-70
2022/11/23 03:18:59;;;;;;;19.95;13.68;;;;;;;3.73;82.24;97881.06;5007853;28;20089;-69
2022/11/23 03:21:25;;;;;;;20.90;15.27;;;;;;;3.73;82.21;97875.81;5008048;28;20046;-69
2022/11/23 03:23:52;;;;;;;18.65;13.02;;;;;;;3.73;81.99;97876.66;5008026;28;20216;-69
2022/11/23 03:26:19;;;;;;;17.85;14.00;;;;;;;3.22;82.13;97792.88;5007727;28;20056;-69
2022/11/23 03:28:45;;;;;;;19.92;14.40;;;;;;;3.73;82.05;97873.19;5007924;28;20042;-69
2022/11/23 03:31:12;;;;;;;18.90;14.52;;;;;;;3.71;82.22;97877.66;5006745;28;20092;-69
2022/11/23 03:33:40;;;;;;;18.17;13.23;;;;;;;3.71;82.24;97873.25;5007523;28;20336;-69
2022/11/23 03:36:08;;;;;;;19.55;14.55;;;;;;;3.71;82.19;97880.28;5007778;28;20046;-69
2022/11/23 03:38:35;;;;;;;14.90;12.68;;;;;;;3.70;82.10;97882.06;5007472;28;20046;-68
2022/11/23 03:41:01;;;;;;;18.20;13.32;;;;;;;3.68;82.14;97881.28;5007675;28;20233;-68
2022/11/23 03:43:28;;;;;;;17.08;12.77;;;;;;;3.69;82.21;97876.88;5007951;28;20046;-69
2022/11/23 03:45:55;;;;;;;18.08;13.30;;;;;;;3.68;82.04;97876.03;5007571;28;20096;-70
2022/11/23 03:48:21;;;;;;;17.35;11.75;;;;;;;3.67;82.19;97878.75;5006957;28;20117;-69
2022/11/23 03:50:49;;;;;;;16.35;12.93;;;;;;;3.67;82.22;97876.13;5006903;28;20229;-69
2022/11/23 03:53:16;;;;;;;15.15;11.68;;;;;;;3.65;82.07;97877.97;5007239;28;20038;-69
2022/11/23 03:55:45;;;;;;;16.00;12.40;;;;;;;3.64;82.21;97886.75;5007370;28;20142;-69
2022/11/23 03:58:13;;;;;;;15.98;12.13;;;;;;;3.63;82.19;97887.69;5007570;28;20039;-70
2022/11/23 04:00:40;;;;;;;15.85;12.85;;;;;;;3.61;82.24;97887.75;5007227;28;20046;-70
2022/11/23 04:03:07;;;;;;;15.45;11.63;;;;;;;3.62;82.21;97883.38;5006096;28;20182;-70
2022/11/23 04:05:33;;;;;;;14.88;11.23;;;;;;;3.61;82.29;97889.53;5007145;28;20046;-70
2022/11/23 04:08:01;;;;;;;15.50;12.07;;;;;;;3.59;82.16;97894.84;5007318;28;20046;-69
2022/11/23 04:10:28;;;;;;;14.25;11.38;;;;;;;3.59;82.22;97901.84;5007065;28;20113;-70
2022/11/23 04:12:55;;;;;;;15.43;11.82;;;;;;;3.60;82.33;97903.56;5007052;28;20042;-69
2022/11/23 04:15:22;;;;;;;15.85;11.88;;;;;;;3.63;82.67;97891.16;5006935;28;20061;-69
2022/11/23 04:17:48;;;;;;;17.48;12.60;;;;;;;3.67;82.88;97902.31;5005928;28;20085;-69
2022/11/23 04:20:15;;;;;;;16.15;12.15;;;;;;;3.70;82.98;97903.00;5006619;28;20045;-69
2022/11/23 04:22:42;;;;;;;16.50;12.43;;;;;;;3.69;82.66;97895.22;5006838;28;20153;-69
2022/11/23 04:25:10;;;;;;;17.30;12.18;;;;;;;3.67;82.37;97905.78;5006793;28;20096;-69
2022/11/23 04:27:37;;;;;;;14.82;11.50;;;;;;;3.67;82.29;97915.41;5006387;28;20101;-69
2022/11/23 04:30:05;;;;;;;17.30;12.52;;;;;;;3.66;82.23;97937.31;5006732;28;20062;-70
2022/11/23 04:32:32;;;;;;;17.95;12.10;;;;;;;3.64;82.34;97916.41;5006275;28;20241;-70
2022/11/23 04:34:59;;;;;;;15.88;12.00;;;;;;;3.65;82.23;97922.50;5006310;28;20050;-70
2022/11/23 04:37:25;;;;;;;16.45;13.00;;;;;;;3.67;82.25;97913.66;5006765;28;20049;-70
2022/11/23 04:39:52;;;;;;;17.52;12.85;;;;;;;3.68;82.32;97917.13;5006219;28;20042;-69
2022/11/23 04:42:20;;;;;;;17.08;12.75;;;;;;;3.66;82.31;97917.19;5006172;28;20049;-70
2022/11/23 04:44:47;;;;;;;19.25;13.98;;;;;;;3.68;82.47;97919.75;5006373;28;20097;-69
2022/11/23 04:47:14;;;;;;;17.67;13.38;;;;;;;3.68;82.54;97919.75;5005866;28;20230;-69
2022/11/23 04:49:40;;;;;;;18.42;12.63;;;;;;;3.67;82.46;97916.28;5006007;28;20046;-69
2022/11/23 04:52:07;;;;;;;18.88;14.18;;;;;;;3.69;82.58;97924.91;5006239;28;20065;-68
2022/11/23 04:54:34;;;;;;;18.35;14.77;;;;;;;3.43;82.61;97881.66;5006516;28;20042;-70
2022/11/23 04:57:00;;;;;;;17.92;13.00;;;;;;;3.69;82.71;97922.28;5005112;28;20175;-69
2022/11/23 04:59:29;;;;;;;18.70;14.23;;;;;;;3.71;82.77;97928.28;5005816;28;20089;-69
2022/11/23 05:01:55;;;;;;;16.23;11.80;;;;;;;3.72;82.73;97929.13;5005881;28;20053;-69
2022/11/23 05:04:22;;;;;;;18.33;13.10;;;;;;;3.72;82.92;97932.59;5006147;28;20088;-69
2022/11/23 05:06:49;;;;;;;18.20;12.63;;;;;;;3.73;82.76;97925.59;5006345;28;20038;-69
2022/11/23 05:09:16;;;;;;;16.98;13.30;;;;;;;3.73;82.70;97929.06;5006109;28;20050;-69
2022/11/23 05:11:42;;;;;;;18.73;13.48;;;;;;;3.72;82.83;97929.13;5006116;28;20046;-70
2022/11/23 05:14:09;;;;;;;17.42;13.02;;;;;;;3.40;82.72;97881.81;5004935;28;20047;-70
2022/11/23 05:16:37;;;;;;;17.95;12.82;;;;;;;3.71;82.87;97936.16;5005430;28;20050;-69
2022/11/23 05:19:04;;;;;;;14.18;11.10;;;;;;;3.74;82.92;97937.78;5006473;28;20042;-69
2022/11/23 05:21:30;;;;;;;17.05;13.27;;;;;;;3.75;82.76;97934.22;5006185;28;20062;-69
2022/11/23 05:23:57;;;;;;;17.33;12.18;;;;;;;3.74;82.69;97938.63;5004982;28;20038;-68
2022/11/23 05:26:24;;;;;;;13.95;11.35;;;;;;;3.75;82.71;97942.09;5005065;28;20038;-69
2022/11/23 05:28:50;;;;;;;16.17;12.57;;;;;;;3.73;82.64;97943.94;5006153;28;20042;-69
2022/11/23 05:31:18;;;;;;;16.30;11.85;;;;;;;3.72;82.75;97945.72;5010077;28;20321;-69
2022/11/23 05:33:46;;;;;;;13.88;11.52;;;;;;;2.91;82.73;97820.56;5009922;28;20201;-68
2022/11/23 05:36:13;;;;;;;13.38;10.43;;;;;;;3.70;82.76;97944.09;5025116;28;20074;-69
2022/11/23 05:38:39;;;;;;;13.98;11.05;;;;;;;3.69;82.72;97943.25;5009568;28;20042;-69
2022/11/23 05:41:07;;;;;;;13.40;9.73;;;;;;;3.69;82.73;97945.00;5008821;28;20249;-68
2022/11/23 05:43:34;;;;;;;11.80;8.82;;;;;;;3.67;82.77;97945.09;5009796;28;20058;-68
2022/11/23 05:46:00;;;;;;;10.52;9.15;;;;;;;3.68;82.75;97953.78;5009367;28;20301;-69
2022/11/23 05:48:27;;;;;;;11.90;9.60;;;;;;;3.67;82.71;97952.94;5008812;28;20038;-68
2022/11/23 05:50:56;;;;;;;12.57;8.98;;;;;;;3.66;82.64;97955.66;5009389;28;20226;-69
2022/11/23 05:53:22;;;;;;;10.73;8.27;;;;;;;3.66;82.47;97959.13;5009726;28;20046;-70
2022/11/23 05:55:49;;;;;;;10.82;8.05;;;;;;;3.65;82.59;97962.66;5008459;28;20039;-69
2022/11/23 05:58:16;;;;;;;9.57;7.80;;;;;;;3.65;82.36;97962.66;5009341;28;20038;-69
2022/11/23 06:00:43;;;;;;;10.60;7.78;;;;;;;3.66;82.33;97955.66;5009519;28;20053;-68
2022/11/23 06:03:09;;;;;;;10.05;7.57;;;;;;;3.62;82.44;97961.97;5009704;28;20050;-69
2022/11/23 06:05:38;;;;;;;8.57;7.30;;;;;;;3.60;82.59;97956.78;5009879;28;20042;-70
2022/11/23 06:08:06;;;;;;;10.13;7.40;;;;;;;3.59;82.34;97956.88;5008105;28;20042;-68
2022/11/23 06:10:33;;;;;;;8.95;7.20;;;;;;;3.60;82.52;97964.66;5009139;28;20053;-67
2022/11/23 06:13:02;;;;;;;10.32;7.13;;;;;;;3.56;82.47;97959.63;5008791;28;20053;-68
2022/11/23 06:15:29;;;;;;;9.10;6.80;;;;;;;3.57;82.31;97961.34;5007951;28;20038;-67
2022/11/23 06:17:59;;;;;;;8.38;6.70;;;;;;;3.56;82.33;97960.50;5007990;28;20034;-68
2022/11/23 06:20:25;;;;;;;8.20;6.60;;;;;;;3.56;82.26;97963.09;5008159;28;20061;-67
2022/11/23 06:22:53;;;;;;;8.85;6.43;;;;;;;1.55;82.12;97633.56;5009588;28;20045;-69
2022/11/23 06:25:21;;;;;;;7.45;6.07;;;;;;;3.58;82.27;97966.50;5009267;28;20042;-69
2022/11/23 06:27:53;;;;;;;7.55;5.70;;;;;;;3.57;82.17;97967.44;5008569;28;20050;-69
2022/11/23 06:30:20;;;;;;;6.30;5.57;;;;;;;3.56;82.17;97970.13;5008899;28;20046;-69
2022/11/23 06:32:47;;;;;;;6.43;5.57;;;;;;;3.53;81.97;97966.72;5008947;28;20046;-69
2022/11/23 06:35:14;;;;;;;6.47;5.45;;;;;;;3.52;81.76;97974.66;5008854;28;20238;-69
2022/11/23 06:37:40;;;;;;;6.32;5.57;;;;;;;3.51;81.75;97973.81;5008787;28;20042;-70
2022/11/23 06:40:09;;;;;;;7.35;5.75;;;;;;;3.50;81.66;97974.75;5007968;28;20050;-69
2022/11/23 06:42:37;;;;;;;7.82;6.28;;;;;;;3.48;81.60;97979.19;5007416;28;20069;-69
2022/11/23 06:45:04;;;;;;;5.53;4.68;;;;;;;3.48;81.69;97986.22;5008356;28;20077;-69
2022/11/23 06:47:31;;;;;;;6.15;5.03;;;;;;;3.46;81.60;97983.66;5008326;28;20344;-69
2022/11/23 06:49:58;;;;;;;6.95;5.35;;;;;;;3.46;81.61;97981.03;5008296;28;20289;-69
2022/11/23 06:52:25;;;;;;;7.65;6.43;;;;;;;3.47;81.76;97990.59;5008506;28;20046;-69
2022/11/23 06:54:51;;;;;;;8.20;6.10;;;;;;;3.48;81.65;97986.22;5008334;28;20050;-69
2022/11/23 06:57:18;;;;;;;8.32;6.32;;;;;;;3.48;81.66;97984.44;5008715;28;20061;-69
2022/11/23 06:59:47;;;;;;;9.38;6.47;;;;;;;3.48;81.96;97979.19;5008398;28;20046;-69
2022/11/23 07:02:15;;;;;;;9.48;7.18;;;;;;;3.48;82.25;97987.06;5008328;28;20046;-69
2022/11/23 07:04:41;;;;;;;10.90;7.43;;;;;;;3.48;82.38;97994.06;5007978;28;20053;-69
2022/11/23 07:07:08;;;;;;;11.65;8.10;;;;;;;3.48;82.77;97989.69;5008202;28;20038;-69
2022/11/23 07:09:35;;;;;;;10.43;8.32;;;;;;;3.48;82.72;97987.06;5008507;28;20050;-69
2022/11/23 07:12:02;;;;;;;9.38;7.55;;;;;;;3.52;82.68;97990.38;5007812;28;20038;-69
2022/11/23 07:14:29;;;;;;;10.85;7.60;;;;;;;3.53;82.71;97992.06;5007781;28;20097;-69
2022/11/23 07:16:57;;;;;;;10.07;7.30;;;;;;;3.20;82.53;97929.94;5007754;28;20186;-69
2022/11/23 07:19:23;;;;;;;9.98;7.78;;;;;;;3.07;82.46;97904.41;5007750;28;20038;-70
2022/11/23 07:21:50;;;;;;;9.52;7.30;;;;;;;3.53;82.63;97985.06;5008013;28;20054;-70
2022/11/23 07:24:17;;;;;;;9.90;6.75;;;;;;;3.56;82.60;97984.06;5007799;28;20050;-70
2022/11/23 07:26:43;;;;;;;8.27;6.75;;;;;;;3.53;82.67;97973.75;5007667;28;20050;-71
2022/11/23 07:29:11;;;;;;;7.65;5.90;;;;;;;3.56;82.69;97977.97;5007593;28;20092;-69
2022/11/23 07:31:37;;;;;;;7.18;4.85;;;;;;;3.57;82.46;97982.28;5007682;28;20305;-69
2022/11/23 07:34:08;;;;;;;6.88;5.20;;;;;;;3.55;82.18;97979.75;5007434;28;20046;-68
2022/11/23 07:36:34;;;;;;;7.03;4.90;;;;;;;3.55;82.21;97977.13;5006998;28;20038;-69
2022/11/23 07:39:01;;;;;;;6.13;4.80;;;;;;;3.57;81.98;97975.28;5007949;28;20092;-69
2022/11/23 07:41:28;;;;;;;4.82;4.13;;;;;;;3.58;81.99;97974.38;5007543;28;20122;-69
2022/11/23 07:43:54;;;;;;;5.63;4.45;;;;;;;3.56;82.01;97963.09;5007563;28;20140;-69
2022/11/23 07:46:21;;;;;;;7.60;4.55;;;;;;;3.56;81.96;97976.22;5007269;28;20120;-69
2022/11/23 07:48:48;;;;;;;6.18;4.68;;;;;;;3.53;82.24;97964.09;5007441;28;20046;-68
2022/11/23 07:51:18;;;;;;;6.35;4.60;;;;;;;3.56;82.13;97972.75;5007752;28;20046;-69
2022/11/23 07:53:45;;;;;;;5.15;4.22;;;;;;;3.53;82.22;97968.50;5007330;28;20050;-69
2022/11/23 07:56:12;;;;;;;5.85;4.65;;;;;;;3.55;82.50;97973.66;5007399;28;20038;-69
2022/11/23 07:58:39;;;;;;;6.05;4.65;;;;;;;3.52;82.55;97975.50;5007101;28;20058;-69
2022/11/23 08:01:05;;;;;;;5.57;4.20;;;;;;;3.57;82.58;97974.44;5006952;28;20046;-69
2022/11/23 08:03:32;;;;;;;5.50;4.50;;;;;;;3.58;82.61;97973.50;5005824;28;20046;-69
2022/11/23 08:05:59;;;;;;;6.53;5.63;;;;;;;3.23;82.60;97907.97;5007311;28;20206;-70
2022/11/23 08:08:27;;;;;;;5.50;4.38;;;;;;;3.61;82.21;97968.13;5007342;28;20046;-69
2022/11/23 08:10:54;;;;;;;5.10;4.35;;;;;;;3.61;82.25;97975.97;5006754;28;20046;-69
2022/11/23 08:13:21;;;;;;;5.70;4.43;;;;;;;3.61;82.21;97974.22;5005905;28;20042;-70
2022/11/23 08:15:49;;;;;;;5.72;4.68;;;;;;;3.09;81.98;98004.66;5006384;28;20054;-69
2022/11/23 08:18:16;;;;;;;6.53;4.65;;;;;;;3.62;82.20;97977.69;5006952;28;20198;-69
2022/11/23 08:20:43;;;;;;;7.60;5.45;;;;;;;3.64;82.41;97970.59;5006816;28;20294;-69
2022/11/23 08:23:10;;;;;;;7.32;5.40;;;;;;;3.66;82.33;97974.00;5007169;28;20065;-68
2022/11/23 08:25:38;;;;;;;5.97;5.03;;;;;;;3.66;82.50;97966.97;5005643;28;20309;-69
2022/11/23 08:28:05;;;;;;;6.07;4.82;;;;;;;3.37;82.55;97912.56;5005584;28;20053;-69
2022/11/23 08:30:33;;;;;;;7.38;5.50;;;;;;;3.70;82.65;97962.44;5006381;28;20058;-69
2022/11/23 08:33:02;;;;;;;6.30;5.07;;;;;;;3.72;82.72;97981.53;5006705;28;20103;-69
2022/11/23 08:35:29;;;;;;;7.22;5.10;;;;;;;3.73;82.53;97963.13;5005532;28;20043;-69
2022/11/23 08:37:56;;;;;;;6.60;4.88;;;;;;;3.76;82.37;97955.13;5006302;28;20150;-69
2022/11/23 08:40:22;;;;;;;6.22;4.32;;;;;;;3.66;82.27;97942.53;5006608;28;20046;-69
2022/11/23 08:42:50;;;;;;;5.60;4.18;;;;;;;3.81;82.24;97960.13;5005452;28;20038;-69
2022/11/23 08:45:17;;;;;;;7.13;5.13;;;;;;;3.81;81.96;97958.34;5006223;28;20294;-69
2022/11/23 08:47:44;;;;;;;7.00;5.18;;;;;;;3.84;82.05;97962.59;5005356;28;20058;-69
2022/11/23 08:50:11;;;;;;;6.68;4.45;;;;;;;3.86;82.12;97950.25;5006170;28;20069;-69
2022/11/23 08:52:37;;;;;;;6.00;4.90;;;;;;;3.90;82.13;97957.03;5006439;28;20100;-70
2022/11/23 08:55:05;;;;;;;6.10;4.90;;;;;;;3.91;82.03;97952.66;5006339;28;20046;-69
2022/11/23 08:57:32;;;;;;;8.23;5.38;;;;;;;3.93;81.92;97964.75;5006365;28;20058;-70
2022/11/23 09:00:00;;;;;;;7.88;5.40;;;;;;;3.94;81.88;97963.81;5006321;28;20053;-68
2022/11/23 09:02:27;;;;;;;6.40;4.97;;;;;;;3.96;81.91;97969.00;5005912;28;20273;-69
2022/11/23 09:04:53;;;;;;;6.95;5.45;;;;;;;3.90;81.69;97966.69;5005732;28;20073;-69
2022/11/23 09:07:20;;;;;;;5.40;4.78;;;;;;;3.98;81.78;97980.25;5006538;28;20093;-69
2022/11/23 09:09:47;;;;;;;6.97;5.30;;;;;;;3.99;81.83;97974.06;5006167;28;20042;-69
2022/11/23 09:12:13;;;;;;;7.90;6.35;;;;;;;4.00;81.77;97979.25;5005905;28;20057;-69
2022/11/23 09:14:40;;;;;;;7.45;5.32;;;;;;;4.01;81.58;97987.97;5006457;28;20046;-69
2022/11/23 09:17:08;;;;;;;8.07;5.38;;;;;;;3.43;81.67;97884.28;5005065;28;20042;-69
2022/11/23 09:19:35;;;;;;;8.23;6.05;;;;;;;4.03;81.60;97989.56;5005821;28;20097;-69
2022/11/23 09:22:02;;;;;;;7.25;5.53;;;;;;;4.03;81.50;97978.25;5005884;28;20109;-70
2022/11/23 09:24:28;;;;;;;6.78;5.95;;;;;;;4.03;81.61;97973.00;5006194;28;20038;-69
2022/11/23 09:26:57;;;;;;;7.30;5.95;;;;;;;4.04;81.62;97979.94;5006272;28;20050;-69
2022/11/23 09:29:24;;;;;;;8.35;5.53;;;;;;;4.03;81.62;97973.84;5006010;28;20045;-69
2022/11/23 09:31:51;;;;;;;6.07;5.10;;;;;;;4.01;81.52;97970.44;5005684;28;20038;-69
2022/11/23 09:34:19;;;;;;;5.97;4.63;;;;;;;4.04;81.71;97975.53;5004663;28;20053;-69
2022/11/23 09:36:45;;;;;;;6.97;5.38;;;;;;;4.03;81.52;97968.59;5005902;28;20046;-69
2022/11/23 09:39:12;;;;;;;7.70;5.65;;;;;;;4.04;81.48;97970.28;5005417;28;20163;-69
2022/11/23 09:41:59;;;;;;;7.53;5.63;;;;;;;4.05;81.44;97968.53;5005628;28;20108;-69
2022/11/23 09:44:36;;;;;;;9.18;6.38;;;;;;;4.04;81.43;97967.69;5005415;28;20046;-69
2022/11/23 09:47:21;;;;;;;8.90;6.38;;;;;;;4.04;81.44;97969.44;5005433;28;20050;-69
2022/11/23 09:49:56;;;;;;;;;;;;;;;3.99;81.00;97966.22;5005058;28;20047;-70
2022/11/23 09:52:24;;;;;;;7.32;5.90;;;;;;;3.97;81.40;97955.81;5004694;28;19949;-70
2022/11/23 09:54:55;;;;;;;6.65;5.20;;;;;;;4.01;81.33;97952.09;5005623;28;20301;-69
2022/11/23 09:57:28;;;;;;;10.73;5.80;;;;;;;3.20;81.22;97806.88;5005834;28;20046;-69
2022/11/23 09:59:59;;;;;;;7.80;5.90;;;;;;;4.03;81.35;97938.91;5004388;28;20051;-69
2022/11/23 10:02:28;;;;;;;9.98;5.22;;;;;;;4.05;81.34;97942.31;5004990;28;20046;-69
2022/11/23 10:04:59;;;;;;;6.63;5.20;;;;;;;4.08;81.35;97943.00;5004732;28;20050;-69
2022/11/23 10:07:46;;;;;;;8.90;6.88;;;;;;;4.09;81.54;97939.44;5005880;28;20038;-69
2022/11/23 10:10:27;;;;;;;7.43;5.80;;;;;;;4.12;81.48;97938.44;5005725;28;20058;-69
2022/11/23 10:13:04;;;;;;;7.68;5.88;;;;;;;3.59;81.58;97838.97;5004458;28;20089;-69
2022/11/23 10:15:38;;;;;;;7.80;5.50;;;;;;;4.18;81.57;97941.59;5005419;28;20054;-69
2022/11/23 10:18:32;;;;;;;7.53;5.50;;;;;;;2.75;81.49;97694.88;5008784;28;20057;-69
2022/11/23 10:21:10;;;;;;;6.82;5.43;;;;;;;4.23;81.52;97933.53;4995999;28;20058;-69
2022/11/23 10:23:51;;;;;;;8.23;5.97;;;;;;;4.03;81.28;97889.97;5009108;28;20093;-69
2022/11/23 10:26:20;;;;;;;7.18;5.35;;;;;;;4.29;81.38;97929.72;5008591;28;20046;-69
2022/11/23 10:28:47;;;;;;;7.03;5.43;;;;;;;4.32;81.34;97926.94;5009352;28;20042;-69
2022/11/23 10:31:16;;;;;;;6.53;5.38;;;;;;;4.34;81.25;97918.06;5008781;28;20053;-70
2022/11/23 10:33:53;;;;;;;8.00;6.13;;;;;;;4.36;81.26;97920.63;5007624;28;20093;-69
2022/11/23 10:36:21;;;;;;;7.90;5.80;;;;;;;4.37;81.01;97917.06;5008448;28;20081;-69
2022/11/23 10:38:51;;;;;;;6.57;5.35;;;;;;;4.39;81.07;97917.84;5008460;28;20038;-69
2022/11/23 10:41:17;;;;;;;8.00;5.55;;;;;;;4.42;81.08;97917.66;5008873;28;20042;-69
2022/11/23 10:43:51;;;;;;;7.78;5.63;;;;;;;3.38;80.88;97744.88;5007989;28;20097;-69
2022/11/23 10:46:39;;;;;;;6.93;5.28;;;;;;;4.51;81.09;97921.56;5008051;28;20297;-70
2022/11/23 10:49:17;;;;;;;6.65;5.30;;;;;;;4.52;80.85;97918.03;5018656;28;20122;-69
2022/11/23 10:51:56;;;;;;;7.68;4.80;;;;;;;4.54;80.91;97909.13;5007786;28;20038;-69
2022/11/23 10:54:34;;;;;;;5.22;4.07;;;;;;;4.03;80.79;97829.66;5008658;28;20108;-69
2022/11/23 10:57:03;;;;;;;5.15;4.22;;;;;;;4.59;80.59;97904.50;5008321;28;20046;-69
2022/11/23 10:59:34;;;;;;;5.32;4.28;;;;;;;3.25;80.22;97701.91;5007311;28;20182;-69
2022/11/23 11:02:15;;;;;;;5.65;4.05;;;;;;;4.66;80.19;97915.50;5008121;28;20047;-69
2022/11/23 11:04:42;;;;;;;6.22;4.47;;;;;;;4.68;79.92;97908.41;5008300;28;20054;-69
2022/11/23 11:07:31;;;;;;;5.85;4.20;;;;;;;0.07;79.44;97128.66;5008004;28;20069;-70
2022/11/23 11:10:00;;;;;;;5.13;4.20;;;;;;;4.67;79.88;97898.84;5003629;28;20066;-70
2022/11/23 11:12:28;;;;;;;5.78;4.38;;;;;;;4.67;79.92;97902.31;5008182;28;20046;-70
2022/11/23 11:14:57;;;;;;;5.57;4.30;;;;;;;4.68;80.15;97893.50;5007615;28;20042;-69
2022/11/23 11:17:29;;;;;;;4.90;3.85;;;;;;;4.37;79.98;97847.09;5007817;28;20065;-69
2022/11/23 11:19:55;;;;;;;5.45;4.13;;;;;;;4.70;80.17;97899.50;5007926;28;20042;-70
2022/11/23 11:22:29;;;;;;;4.97;4.10;;;;;;;4.71;80.22;97897.72;5006776;28;20089;-70
2022/11/23 11:24:57;;;;;;;4.72;3.60;;;;;;;4.73;79.99;97901.13;5007663;28;20057;-69
2022/11/23 11:27:26;;;;;;;5.63;4.25;;;;;;;4.74;79.94;97902.81;5007491;28;20046;-69
2022/11/23 11:29:56;;;;;;;6.32;5.50;;;;;;;3.75;79.70;97770.00;5007485;28;20254;-71
2022/11/23 11:32:27;;;;;;;4.70;4.10;;;;;;;4.73;79.76;97898.50;5006696;28;20038;-70
2022/11/23 11:35:01;;;;;;;4.80;4.07;;;;;;;4.72;79.54;97900.28;5007867;28;20052;-70
2022/11/23 11:37:35;;;;;;;6.88;4.85;;;;;;;4.72;79.46;97899.44;5007955;28;20097;-70
2022/11/23 11:40:10;;;;;;;5.07;3.90;;;;;;;4.69;79.33;97897.81;5008017;28;20105;-70